Time;durP1;ratioP1;P1;durP2;ratioP2;P2;SDS_P1;SDS_P2;PMS_P1;PMS_P2;Temp;Humidity;BMP_temperature;BMP_pressure;BME280_temperature;BME280_humidity;BME280_pressure;Samples;Min_cycle;Max_cycle;Signal;HPM_P1;HPM_P2
2022/08/11 00:00:42;;;;;;;8.43;4.43;;;19.30;1.00;;;;;;5014451;28;20419;-74
2022/08/11 00:03:12;;;;;;;6.30;4.40;;;19.30;1.00;;;;;;5022229;28;20422;-76
2022/08/11 00:05:47;;;;;;;6.80;4.33;;;19.20;1.00;;;;;;5034892;28;20433;-77
2022/08/11 00:08:26;;;;;;;6.50;4.53;;;19.10;1.00;;;;;;5023502;28;20437;-77
2022/08/11 00:11:21;;;;;;;8.20;3.83;;;19.10;1.00;;;;;;5024789;28;20416;-76
2022/08/11 00:13:49;;;;;;;11.50;4.57;;;19.00;1.00;;;;;;5025284;28;20532;-76
2022/08/11 00:16:22;;;;;;;7.43;5.00;;;18.90;1.00;;;;;;5017047;28;20414;-77
2022/08/11 00:19:09;;;;;;;6.23;4.93;;;18.80;1.00;;;;;;5024466;28;20569;-76
2022/08/11 00:21:56;;;;;;;22.60;5.00;;;18.80;1.00;;;;;;5018430;28;20949;-77
2022/08/11 00:24:41;;;;;;;8.20;5.00;;;18.70;1.00;;;;;;5027490;28;20453;-77
2022/08/11 00:27:09;;;;;;;9.97;4.70;;;18.60;1.00;;;;;;5026392;28;20505;-76
2022/08/11 00:29:34;;;;;;;5.70;4.23;;;18.60;1.00;;;;;;5026054;28;20444;-77
2022/08/11 00:32:03;;;;;;;10.80;4.30;;;18.50;1.00;;;;;;5032511;28;20430;-77
2022/08/11 00:34:32;;;;;;;7.10;4.50;;;18.50;1.00;;;;;;5019691;28;20662;-74
2022/08/11 00:37:04;;;;;;;9.37;4.53;;;18.40;1.00;;;;;;5027525;28;20416;-74
2022/08/11 00:39:34;;;;;;;12.63;4.03;;;18.30;1.00;;;;;;5035174;28;20472;-74
2022/08/11 00:42:27;;;;;;;4.83;4.33;;;18.30;1.00;;;;;;5032600;28;20426;-74
2022/08/11 00:44:59;;;;;;;6.80;4.13;;;18.20;1.00;;;;;;5015790;28;20419;-74
2022/08/11 00:47:45;;;;;;;6.40;4.50;;;18.20;1.00;;;;;;5025037;28;20446;-75
2022/08/11 00:50:47;;;;;;;8.07;4.67;;;18.10;1.00;;;;;;5027962;28;20432;-77
2022/08/11 00:53:56;;;;;;;9.13;5.43;;;18.00;1.00;;;;;;5027985;28;20427;-76
2022/08/11 00:56:50;;;;;;;5.93;4.60;;;18.00;1.00;;;;;;5031789;28;20427;-77
2022/08/11 00:59:56;;;;;;;16.03;5.20;;;17.90;1.00;;;;;;5015803;28;20453;-77
2022/08/11 01:02:46;;;;;;;12.23;5.07;;;17.80;1.00;;;;;;5015874;28;20400;-77
2022/08/11 01:05:32;;;;;;;8.80;4.47;;;17.80;1.00;;;;;;5023532;28;20998;-77
2022/08/11 01:08:11;;;;;;;12.90;4.77;;;17.70;1.00;;;;;;5015949;28;20430;-77
2022/08/11 01:10:56;;;;;;;5.73;4.40;;;17.70;1.00;;;;;;5024472;28;20970;-77
2022/08/11 01:13:41;;;;;;;7.87;4.50;;;17.70;1.00;;;;;;5018504;28;20534;-77
2022/08/11 01:16:24;;;;;;;9.33;5.20;;;17.60;1.00;;;;;;5023969;28;20416;-77
2022/08/11 01:18:53;;;;;;;10.83;4.77;;;17.60;1.00;;;;;;5029242;28;20479;-74
2022/08/11 01:21:40;;;;;;;6.30;4.77;;;17.50;1.00;;;;;;5021971;28;20396;-74
2022/08/11 01:24:09;;;;;;;6.87;4.70;;;17.50;1.00;;;;;;5027127;28;20419;-74
2022/08/11 01:27:05;;;;;;;9.50;4.27;;;17.40;1.00;;;;;;5033623;28;20932;-74
2022/08/11 01:29:59;;;;;;;6.20;5.03;;;17.40;1.00;;;;;;5026825;28;20532;-74
2022/08/11 01:32:28;;;;;;;11.50;5.00;;;17.30;1.00;;;;;;5015287;28;20523;-74
2022/08/11 01:35:24;;;;;;;6.70;5.27;;;17.20;1.00;;;;;;5023182;28;20741;-77
2022/08/11 01:38:18;;;;;;;7.17;4.90;;;17.20;1.00;;;;;;5019809;28;20464;-77
2022/08/11 01:40:44;;;;;;;5.67;5.17;;;17.20;1.00;;;;;;5028068;28;20429;-77
2022/08/11 01:46:18;;;;;;;5.57;4.83;;;17.10;1.00;;;;;;5020386;28;20231;-77
2022/08/11 01:49:10;;;;;;;7.00;4.37;;;17.10;1.00;;;;;;5031214;28;20448;-74
2022/08/11 01:52:00;;;;;;;6.03;4.30;;;17.00;1.00;;;;;;5023946;28;20935;-74
2022/08/11 01:55:07;;;;;;;11.80;5.47;;;17.00;1.00;;;;;;5027895;28;20443;-74
2022/08/11 01:57:55;;;;;;;7.23;4.63;;;16.90;1.00;;;;;;4982670;28;20407;-74
2022/08/11 02:01:01;;;;;;;11.33;5.13;;;16.90;1.00;;;;;;4974427;28;20974;-74
2022/08/11 02:04:10;;;;;;;5.23;4.43;;;16.80;1.00;;;;;;4974341;28;20837;-77
2022/08/11 02:07:01;;;;;;;7.70;4.80;;;16.80;1.00;;;;;;4978653;28;20426;-77
2022/08/11 02:13:17;;;;;;;8.80;4.80;;;16.70;1.00;;;;;;4973226;28;20422;-77
2022/08/11 02:15:55;;;;;;;10.93;5.27;;;16.60;1.00;;;;;;4981163;28;20437;-77
2022/08/11 02:23:38;;;;;;;8.10;4.50;;;16.60;1.00;;;;;;4960607;28;20453;-75
2022/08/11 02:24:30;;;;;;;5.60;4.43;;;16.50;1.00;;;;;;4946013;28;20438;-74
2022/08/11 02:27:49;;;;;;;5.73;4.50;;;16.50;1.00;;;;;;4944640;29;20882;-74
2022/08/11 02:30:38;;;;;;;5.77;5.17;;;16.40;1.00;;;;;;4933373;29;20433;-74
2022/08/11 02:33:33;;;;;;;8.43;5.40;;;16.50;1.00;;;;;;4962786;28;20416;-74
2022/08/11 02:36:29;;;;;;;7.47;4.80;;;16.30;1.00;;;;;;4929895;29;20819;-74
2022/08/11 02:39:09;;;;;;;4.70;4.20;;;16.30;1.00;;;;;;4934427;29;20475;-74
2022/08/11 02:45:11;;;;;;;6.10;4.50;;;16.30;1.00;;;;;;4896451;29;20396;-74
2022/08/11 02:51:22;;;;;;;20.77;5.07;;;16.20;1.00;;;;;;4895454;29;20936;-74
2022/08/11 02:54:09;;;;;;;15.13;4.87;;;16.20;1.00;;;;;;4896206;29;20440;-74
2022/08/11 02:56:51;;;;;;;9.07;4.63;;;16.10;1.00;;;;;;4896284;29;20515;-74
2022/08/11 02:59:49;;;;;;;9.33;5.17;;;16.10;1.00;;;;;;4896432;29;20511;-74
2022/08/11 03:02:30;;;;;;;5.97;4.50;;;16.10;1.00;;;;;;4896420;29;20578;-74
2022/08/11 03:05:10;;;;;;;8.13;5.17;;;16.10;1.00;;;;;;4901687;29;20413;-77
2022/08/11 03:08:09;;;;;;;5.47;4.90;;;16.10;1.00;;;;;;4936534;29;20442;-77
2022/08/11 03:16:43;;;;;;;12.43;5.10;;;16.00;1.00;;;;;;4948258;29;20416;-77
2022/08/11 03:16:57;;;;;;;11.83;5.00;;;16.00;1.00;;;;;;4938542;29;20449;-77
2022/08/11 03:19:52;;;;;;;11.40;5.57;;;15.90;1.00;;;;;;4942394;29;20441;-74
2022/08/11 03:22:24;;;;;;;6.57;4.93;;;15.90;1.00;;;;;;5008215;28;20378;-74
2022/08/11 03:25:07;;;;;;;8.37;5.40;;;15.90;1.00;;;;;;5016695;28;20414;-74
2022/08/11 03:27:59;;;;;;;9.63;5.10;;;15.90;1.00;;;;;;5017801;28;20428;-74
2022/08/11 03:30:30;;;;;;;10.33;5.20;;;15.80;1.00;;;;;;5026538;28;20979;-74
2022/08/11 03:36:16;;;;;;;6.40;4.90;;;15.80;1.00;;;;;;5029475;28;20377;-77
2022/08/11 03:39:14;;;;;;;5.80;5.10;;;15.80;1.00;;;;;;5031424;28;20514;-78
2022/08/11 03:42:02;;;;;;;5.60;5.00;;;15.80;1.00;;;;;;5017363;28;20749;-77
2022/08/11 03:44:54;;;;;;;6.73;5.27;;;15.80;1.00;;;;;;5032435;28;20933;-77
2022/08/11 03:47:51;;;;;;;6.30;4.97;;;15.80;1.00;;;;;;5037115;28;20402;-77
2022/08/11 03:50:54;;;;;;;17.03;5.27;;;15.70;1.00;;;;;;5021475;28;20455;-75
2022/08/11 03:53:55;;;;;;;9.53;5.20;;;15.70;1.00;;;;;;5031176;28;20493;-74
2022/08/11 03:56:39;;;;;;;10.33;5.30;;;15.70;1.00;;;;;;5026299;28;20433;-74
2022/08/11 03:59:21;;;;;;;9.73;5.97;;;15.70;1.00;;;;;;5022902;28;20498;-74
2022/08/11 04:02:11;;;;;;;10.33;4.90;;;15.70;1.00;;;;;;5023603;28;20451;-75
2022/08/11 04:05:24;;;;;;;7.00;5.13;;;15.60;1.00;;;;;;5025344;28;20402;-77
2022/08/11 04:08:02;;;;;;;5.73;5.10;;;15.60;1.00;;;;;;5022025;28;20414;-77
2022/08/11 04:10:50;;;;;;;6.20;5.27;;;15.70;1.00;;;;;;5022944;28;20468;-77
2022/08/11 04:13:52;;;;;;;5.53;4.90;;;15.70;1.00;;;;;;5032088;28;20512;-77
2022/08/11 04:17:06;;;;;;;9.20;5.40;;;15.70;1.00;;;;;;5018900;28;20462;-78
2022/08/11 04:19:35;;;;;;;12.43;6.07;;;15.70;1.00;;;;;;5027513;28;20900;-75
2022/08/11 04:22:30;;;;;;;11.73;5.27;;;15.70;1.00;;;;;;5034404;28;20393;-74
2022/08/11 04:25:40;;;;;;;8.40;5.37;;;15.70;1.00;;;;;;5033852;28;20441;-74
2022/08/11 04:28:58;;;;;;;9.67;5.43;;;15.80;1.00;;;;;;5033469;28;20922;-74
2022/08/11 04:31:38;;;;;;;6.00;4.83;;;15.80;1.00;;;;;;4992352;28;20903;-74
2022/08/11 04:34:56;;;;;;;14.50;5.30;;;15.80;1.00;;;;;;4998493;28;20450;-74
2022/08/11 04:38:02;;;;;;;6.67;5.00;;;15.80;1.00;;;;;;4975248;28;20418;-77
2022/08/11 04:41:02;;;;;;;7.63;5.33;;;15.90;1.00;;;;;;5003467;28;20474;-78
2022/08/11 04:44:02;;;;;;;6.10;5.17;;;15.90;1.00;;;;;;4976501;28;20424;-77
2022/08/11 04:46:59;;;;;;;7.00;5.70;;;15.90;1.00;;;;;;4975592;28;20407;-77
2022/08/11 05:03:34;;;;;;;5.87;4.70;;;16.10;1.00;;;;;;4978985;28;20417;-80
2022/08/11 05:06:20;;;;;;;9.33;4.80;;;16.20;1.00;;;;;;4958609;28;20937;-78
2022/08/11 05:09:16;;;;;;;11.70;4.40;;;16.30;1.00;;;;;;5033680;28;20888;-78
2022/08/11 05:12:08;;;;;;;24.43;5.17;;;16.30;1.00;;;;;;5028309;28;20447;-78
2022/08/11 05:36:24;;;;;;;7.07;4.90;;;17.20;1.00;;;;;;5017635;28;20374;-80
2022/08/11 05:56:59;;;;;;;13.20;4.67;;;18.10;1.00;;;;;;5032114;28;20806;-78
2022/08/11 05:59:39;;;;;;;6.77;3.93;;;18.30;1.00;;;;;;5012608;28;20465;-78
2022/08/11 06:02:08;;;;;;;6.77;4.60;;;18.50;1.00;;;;;;5029526;28;20439;-78
2022/08/11 06:04:37;;;;;;;5.67;4.40;;;18.60;1.00;;;;;;5024395;28;20902;-79
2022/08/11 06:07:32;;;;;;;10.50;4.43;;;18.70;1.00;;;;;;5015037;28;20450;-79
2022/08/11 06:10:10;;;;;;;5.60;3.83;;;18.90;1.00;;;;;;5016768;28;20478;-80
2022/08/11 06:12:41;;;;;;;9.17;4.27;;;19.10;1.00;;;;;;5017648;28;20866;-79
2022/08/11 06:15:11;;;;;;;7.43;4.03;;;19.30;1.00;;;;;;5014367;28;20445;-75
2022/08/11 06:17:50;;;;;;;11.23;4.03;;;19.50;1.00;;;;;;5025921;28;20427;-72
2022/08/11 06:20:17;;;;;;;7.10;4.50;;;19.70;1.00;;;;;;5028093;28;20421;-73
2022/08/11 06:23:04;;;;;;;5.10;4.00;;;19.90;1.00;;;;;;5034244;28;20399;-78
2022/08/11 06:25:39;;;;;;;7.57;4.33;;;20.10;1.00;;;;;;5025541;28;20968;-78
2022/08/11 06:28:07;;;;;;;22.20;4.33;;;20.30;1.00;;;;;;5032591;28;20382;-78
2022/08/11 06:30:47;;;;;;;28.07;5.00;;;20.50;1.00;;;;;;5021000;28;20421;-78
2022/08/11 06:33:29;;;;;;;6.70;3.50;;;20.60;1.00;;;;;;5022314;28;21029;-78
2022/08/11 06:36:14;;;;;;;6.70;3.83;;;20.80;1.00;;;;;;5024738;28;20416;-78
2022/08/11 06:39:07;;;;;;;7.70;3.80;;;21.00;1.00;;;;;;5028418;28;20510;-78
2022/08/11 06:41:54;;;;;;;5.07;3.37;;;21.20;1.00;;;;;;5021683;28;20432;-78
2022/08/11 06:44:40;;;;;;;13.63;3.10;;;21.30;1.00;;;;;;5013074;28;20495;-78
2022/08/11 06:47:16;;;;;;;3.67;3.07;;;21.50;1.00;;;;;;5013837;28;20427;-78
2022/08/11 06:53:22;;;;;;;5.87;3.67;;;21.80;1.00;;;;;;5017834;28;20403;-78
2022/08/11 07:02:40;;;;;;;4.30;3.43;;;22.40;1.00;;;;;;5012094;28;20803;-78
2022/08/11 07:05:13;;;;;;;7.70;3.90;;;22.60;1.00;;;;;;5015075;28;20429;-78
2022/08/11 07:17:16;;;;;;;7.17;3.63;;;23.20;1.00;;;;;;5028282;28;20519;-78
2022/08/11 07:31:20;;;;;;;7.90;3.67;;;23.90;1.00;;;;;;5017442;28;20813;-73
2022/08/11 07:33:49;;;;;;;4.60;3.50;;;24.00;1.00;;;;;;5019994;28;20464;-73
2022/08/11 07:36:17;;;;;;;6.60;3.73;;;24.10;1.00;;;;;;5033045;28;20444;-73
2022/08/11 07:38:50;;;;;;;3.13;2.93;;;24.20;1.00;;;;;;5032879;28;20546;-73
2022/08/11 07:41:18;;;;;;;8.33;3.70;;;24.30;1.00;;;;;;5021118;28;20430;-74
2022/08/11 07:44:07;;;;;;;7.20;3.20;;;24.50;1.00;;;;;;5021069;28;20453;-73
2022/08/11 07:52:30;;;;;;;9.43;3.67;;;24.80;1.00;;;;;;5027735;28;20789;-74
2022/08/11 07:54:58;;;;;;;7.90;3.20;;;24.90;1.00;;;;;;5022093;28;20781;-73
2022/08/11 08:19:47;;;;;;;5.40;3.50;;;25.80;1.00;;;;;;5026256;28;20976;-78
2022/08/11 08:22:33;;;;;;;5.97;3.40;;;25.80;1.00;;;;;;5025759;28;20426;-78
2022/08/11 08:25:05;;;;;;;5.70;3.10;;;25.90;1.00;;;;;;5023977;28;20422;-78
2022/08/11 08:27:34;;;;;;;4.00;3.40;;;26.00;1.00;;;;;;5025270;28;20458;-78
2022/08/11 08:32:59;;;;;;;3.50;3.20;;;26.20;1.00;;;;;;5028224;28;20410;-78
2022/08/11 08:35:29;;;;;;;5.17;3.47;;;26.30;1.00;;;;;;5029565;28;20427;-78
2022/08/11 08:38:01;;;;;;;4.93;2.70;;;26.40;1.00;;;;;;5030259;28;20452;-74
2022/08/11 08:40:27;;;;;;;4.40;3.27;;;26.60;1.00;;;;;;5028217;28;20438;-73
2022/08/11 08:43:16;;;;;;;11.67;2.97;;;26.70;1.00;;;;;;5025112;28;20426;-73
2022/08/11 08:45:43;;;;;;;6.50;3.17;;;26.80;1.00;;;;;;5034397;28;20444;-73
2022/08/11 08:48:15;;;;;;;5.87;2.90;;;26.90;1.00;;;;;;5020846;28;21000;-73
2022/08/11 08:53:52;;;;;;;3.00;2.80;;;27.10;1.00;;;;;;5024403;28;20484;-73
2022/08/11 08:56:19;;;;;;;4.60;2.80;;;27.20;1.00;;;;;;5020812;28;20456;-73
2022/08/11 08:58:51;;;;;;;4.43;3.47;;;27.40;1.00;;;;;;5034437;28;20812;-73
2022/08/11 09:01:24;;;;;;;6.20;3.03;;;27.50;1.00;;;;;;5027467;28;20458;-73
2022/08/11 09:03:50;;;;;;;5.10;3.17;;;27.60;1.00;;;;;;5016743;28;20412;-73
2022/08/11 09:06:16;;;;;;;3.63;2.90;;;27.70;1.00;;;;;;5027543;28;20423;-73
2022/08/11 09:08:43;;;;;;;3.30;3.00;;;27.70;1.00;;;;;;5028401;28;20434;-73
2022/08/11 09:13:55;;;;;;;4.20;2.93;;;27.90;1.00;;;;;;5028142;28;20958;-73
2022/08/11 09:16:22;;;;;;;5.20;3.20;;;28.00;1.00;;;;;;5015376;28;20440;-73
2022/08/11 09:18:48;;;;;;;3.80;3.30;;;28.10;1.00;;;;;;5019511;28;20468;-73
2022/08/11 09:21:17;;;;;;;3.43;2.50;;;28.20;1.00;;;;;;5031257;28;20783;-73
2022/08/11 09:29:13;;;;;;;3.47;2.20;;;28.60;1.00;;;;;;5026482;28;20457;-73
2022/08/11 09:31:40;;;;;;;3.97;2.30;;;28.60;1.00;;;;;;5026007;28;20463;-73
2022/08/11 09:34:07;;;;;;;3.90;2.63;;;28.80;1.00;;;;;;5014235;28;20155;-73
2022/08/11 09:42:04;;;;;;;4.63;2.30;;;29.00;1.00;;;;;;5018124;28;20435;-73
2022/08/11 09:44:47;;;;;;;3.23;2.60;;;29.20;1.00;;;;;;5023336;28;20971;-73
2022/08/11 09:47:26;;;;;;;6.83;1.87;;;29.40;1.00;;;;;;5026159;28;20433;-73
2022/08/11 09:49:59;;;;;;;2.70;2.40;;;29.30;1.00;;;;;;5029131;28;20932;-73
2022/08/11 09:52:25;;;;;;;9.27;2.50;;;29.20;1.00;;;;;;5020320;28;20439;-70
2022/08/11 09:54:52;;;;;;;2.67;2.30;;;29.20;1.00;;;;;;5023803;28;20438;-70
2022/08/11 10:00:09;;;;;;;3.43;2.53;;;29.30;1.00;;;;;;5006802;28;20444;-70
2022/08/11 10:02:41;;;;;;;5.00;2.47;;;29.30;1.00;;;;;;5007474;28;20438;-70
2022/08/11 10:07:53;;;;;;;2.50;2.30;;;29.50;1.00;;;;;;5010658;28;20798;-69
2022/08/11 10:10:21;;;;;;;3.77;2.50;;;29.40;1.00;;;;;;5007695;28;20520;-70
2022/08/11 10:12:58;;;;;;;4.33;2.60;;;29.40;1.00;;;;;;5008117;28;20464;-70
2022/08/11 10:15:34;;;;;;;2.93;2.60;;;29.50;1.00;;;;;;5007578;28;20518;-70
2022/08/11 10:21:11;;;;;;;6.47;2.60;;;29.80;1.00;;;;;;5006498;28;20434;-70
2022/08/11 10:34:47;;;;;;;4.73;2.60;;;30.40;1.00;;;;;;5007374;28;20869;-73
2022/08/11 10:37:16;;;;;;;2.87;2.67;;;30.30;1.00;;;;;;5006320;28;20520;-74
2022/08/11 10:39:46;;;;;;;4.03;2.80;;;30.30;1.00;;;;;;5025970;28;20528;-70
2022/08/11 10:45:00;;;;;;;2.67;2.47;;;30.60;1.00;;;;;;5029321;28;20496;-70
2022/08/11 10:47:38;;;;;;;2.77;2.40;;;30.80;1.00;;;;;;5026692;28;20424;-70
2022/08/11 10:58:48;;;;;;;7.77;2.30;;;31.40;1.00;;;;;;5018119;28;20467;-74
2022/08/11 11:01:21;;;;;;;2.20;2.10;;;31.60;1.00;;;;;;5029649;28;20442;-81
2022/08/11 11:03:56;;;;;;;3.10;2.80;;;31.70;1.00;;;;;;5027967;28;20424;-79
2022/08/11 11:06:55;;;;;;;3.83;2.07;;;31.80;1.00;;;;;;5031325;28;20434;-78
2022/08/11 11:09:31;;;;;;;5.43;2.07;;;31.80;1.00;;;;;;5020311;28;20430;-75
2022/08/11 11:18:28;;;;;;;2.20;2.00;;;31.90;1.00;;;;;;5047002;28;20976;-80
2022/08/11 11:21:05;;;;;;;2.10;1.90;;;31.90;1.00;;;;;;5043934;28;20442;-80
2022/08/11 11:24:00;;;;;;;2.23;2.13;;;31.90;1.00;;;;;;5030951;28;20425;-80
2022/08/11 11:30:15;;;;;;;3.43;2.50;;;32.00;1.00;;;;;;5035983;28;20440;-80
2022/08/11 11:32:54;;;;;;;4.23;1.83;;;31.90;1.00;;;;;;5046277;28;20428;-81
2022/08/11 11:36:05;;;;;;;9.47;2.40;;;32.10;1.00;;;;;;5034838;28;20434;-81
2022/08/11 11:38:33;;;;;;;2.33;2.13;;;32.10;1.00;;;;;;5033165;28;20470;-80
2022/08/11 11:41:38;;;;;;;6.07;2.27;;;32.10;1.00;;;;;;5031789;28;21149;-80
2022/08/11 11:44:05;;;;;;;2.97;2.33;;;32.20;1.00;;;;;;5035122;28;20446;-81
2022/08/11 11:46:40;;;;;;;3.37;2.23;;;32.30;1.00;;;;;;5034086;28;20952;-79
2022/08/11 11:49:10;;;;;;;2.27;2.10;;;32.30;1.00;;;;;;5031400;28;20570;-79
2022/08/11 11:51:39;;;;;;;7.50;2.50;;;32.30;1.00;;;;;;5027541;28;20791;-80
2022/08/11 11:54:44;;;;;;;2.43;2.20;;;32.40;1.00;;;;;;5027672;28;20427;-80
2022/08/11 12:03:10;;;;;;;3.20;2.40;;;32.50;1.00;;;;;;5017168;28;20481;-80
2022/08/11 12:05:39;;;;;;;6.43;2.67;;;32.60;1.00;;;;;;5034483;28;20469;-80
2022/08/11 12:08:27;;;;;;;2.83;2.63;;;32.50;1.00;;;;;;5017271;28;20477;-80
2022/08/11 12:14:18;;;;;;;2.90;2.70;;;32.40;1.00;;;;;;5024793;28;20904;-80
2022/08/11 12:17:26;;;;;;;4.23;2.50;;;32.50;1.00;;;;;;5033597;28;20481;-80
2022/08/11 12:20:21;;;;;;;5.60;2.50;;;32.50;1.00;;;;;;5036338;28;20458;-80
2022/08/11 12:29:52;;;;;;;7.70;2.40;;;32.70;1.00;;;;;;5031452;28;20402;-80
2022/08/11 12:32:40;;;;;;;4.03;2.30;;;32.80;1.00;;;;;;5021165;28;20416;-79
2022/08/11 12:35:10;;;;;;;2.40;2.30;;;32.80;1.00;;;;;;5016087;28;20816;-79
2022/08/11 12:37:44;;;;;;;4.60;2.63;;;32.90;1.00;;;;;;5024244;28;20428;-80
2022/08/11 12:45:58;;;;;;;2.90;2.27;;;33.00;1.00;;;;;;5026142;28;20422;-80
2022/08/11 12:51:59;;;;;;;3.30;2.80;;;33.30;1.00;;;;;;5030307;28;20431;-80
2022/08/11 12:55:02;;;;;;;4.83;2.63;;;33.40;1.00;;;;;;5032344;28;20428;-80
2022/08/11 13:06:10;;;;;;;2.60;2.50;;;33.60;1.00;;;;;;5024147;28;20426;-80
2022/08/11 13:08:40;;;;;;;5.00;2.60;;;33.80;1.00;;;;;;5029703;28;20446;-80
2022/08/11 13:14:09;;;;;;;5.73;2.60;;;33.70;1.00;;;;;;5021664;28;20450;-80
2022/08/11 13:19:42;;;;;;;3.30;2.20;;;33.70;1.00;;;;;;5013356;28;21009;-80
2022/08/11 13:22:23;;;;;;;2.80;2.60;;;33.80;1.00;;;;;;5027548;28;20473;-80
2022/08/11 13:24:57;;;;;;;4.27;2.20;;;33.70;1.00;;;;;;5032603;28;20442;-80
2022/08/11 13:27:27;;;;;;;3.70;2.70;;;33.70;1.00;;;;;;5025382;28;20426;-80
2022/08/11 13:33:06;;;;;;;4.30;2.43;;;33.70;1.00;;;;;;5015266;28;20411;-79
2022/08/11 13:35:33;;;;;;;2.70;2.50;;;33.70;1.00;;;;;;5015168;28;20926;-79
2022/08/11 13:38:39;;;;;;;2.90;2.70;;;33.80;1.00;;;;;;5021942;28;20436;-79
2022/08/11 13:41:40;;;;;;;10.23;2.27;;;33.80;1.00;;;;;;5019176;28;20411;-78
2022/08/11 13:44:09;;;;;;;2.70;2.10;;;33.90;1.00;;;;;;5026517;28;20419;-76
2022/08/11 13:46:40;;;;;;;3.90;2.30;;;34.00;1.00;;;;;;5028107;28;20420;-79
2022/08/11 13:49:10;;;;;;;2.50;2.30;;;34.10;1.00;;;;;;5022373;28;20430;-79
2022/08/11 13:51:38;;;;;;;5.97;2.67;;;34.20;1.00;;;;;;5027733;28;20447;-80
2022/08/11 13:54:16;;;;;;;1.83;1.73;;;34.30;1.00;;;;;;5030299;28;20464;-80
2022/08/11 13:56:45;;;;;;;5.40;2.40;;;34.30;1.00;;;;;;5015613;28;20416;-80
2022/08/11 13:59:24;;;;;;;2.07;1.97;;;34.30;1.00;;;;;;5015645;28;20456;-78
2022/08/11 14:02:18;;;;;;;2.23;2.07;;;34.40;1.00;;;;;;5015268;28;20392;-78
2022/08/11 14:05:00;;;;;;;4.70;2.20;;;34.50;1.00;;;;;;5029690;28;20443;-77
2022/08/11 14:07:37;;;;;;;2.60;2.40;;;34.60;1.00;;;;;;5037161;28;20419;-77
2022/08/11 14:10:11;;;;;;;13.13;2.70;;;34.60;1.00;;;;;;5043168;28;21042;-76
2022/08/11 14:15:32;;;;;;;2.10;1.90;;;34.80;1.00;;;;;;5065080;28;20428;-75
2022/08/11 14:18:20;;;;;;;2.47;2.20;;;34.90;1.00;;;;;;5051871;28;20432;-75
2022/08/11 14:23:49;;;;;;;4.90;2.27;;;34.90;1.00;;;;;;5012114;28;20412;-74
2022/08/11 14:26:28;;;;;;;3.00;2.03;;;34.80;1.00;;;;;;5012464;28;20420;-75
2022/08/11 14:29:07;;;;;;;2.20;1.70;;;34.90;1.00;;;;;;4994598;28;20428;-75
2022/08/11 14:31:35;;;;;;;4.17;2.03;;;34.70;1.00;;;;;;5005603;28;20435;-75
2022/08/11 14:34:09;;;;;;;3.03;2.60;;;34.60;1.00;;;;;;4999080;28;20946;-75
2022/08/11 14:36:38;;;;;;;3.47;2.33;;;34.60;1.00;;;;;;5001846;28;20413;-76
2022/08/11 14:39:12;;;;;;;2.70;2.40;;;34.70;1.00;;;;;;4997960;28;20542;-76
2022/08/11 14:47:20;;;;;;;3.73;2.27;;;34.70;1.00;;;;;;4963621;28;20428;-75
2022/08/11 14:49:46;;;;;;;5.50;2.40;;;34.80;1.00;;;;;;4957169;28;20449;-75
2022/08/11 14:52:17;;;;;;;4.57;2.20;;;34.90;1.00;;;;;;4960644;28;20442;-75
2022/08/11 14:57:46;;;;;;;2.87;2.50;;;35.10;1.00;;;;;;4965854;28;20516;-79
2022/08/11 15:00:17;;;;;;;2.30;2.10;;;35.20;1.00;;;;;;4974066;28;20464;-79
2022/08/11 15:03:10;;;;;;;2.40;2.20;;;35.20;1.00;;;;;;5012882;28;20423;-79
2022/08/11 15:05:55;;;;;;;7.50;2.20;;;35.10;1.00;;;;;;5016639;28;20415;-79
2022/08/11 15:08:53;;;;;;;8.57;2.00;;;35.20;1.00;;;;;;5023106;28;20450;-80
2022/08/11 15:14:11;;;;;;;2.30;2.10;;;35.30;1.00;;;;;;5025759;28;20565;-76
2022/08/11 15:19:28;;;;;;;5.00;2.47;;;35.40;1.00;;;;;;5013729;28;20439;-76
2022/08/11 15:24:38;;;;;;;6.30;2.30;;;36.00;1.00;;;;;;5023425;28;20812;-76
2022/08/11 15:38:22;;;;;;;1.50;1.50;;;42.40;1.00;;;;;;5034386;28;20540;-80
2022/08/11 15:47:00;;;;;;;1.50;1.50;;;44.40;1.00;;;;;;5020338;28;20441;-81
2022/08/11 15:49:38;;;;;;;1.40;1.40;;;45.00;1.00;;;;;;5023821;28;20887;-81
2022/08/11 15:52:18;;;;;;;1.73;1.63;;;46.20;1.00;;;;;;5018861;28;20784;-79
2022/08/11 15:55:15;;;;;;;1.73;1.63;;;46.80;1.00;;;;;;5023757;28;20445;-81
2022/08/11 16:06:21;;;;;;;3.13;1.37;;;47.50;1.00;;;;;;5016551;28;20438;-81
2022/08/11 16:08:48;;;;;;;1.60;1.50;;;46.90;1.00;;;;;;5021107;28;20499;-80
2022/08/11 16:11:15;;;;;;;2.97;1.37;;;46.30;1.00;;;;;;5031343;28;20438;-79
2022/08/11 16:16:38;;;;;;;1.73;1.63;;;45.70;1.00;;;;;;5034564;28;20462;-79
2022/08/11 16:19:08;;;;;;;2.40;2.20;;;45.60;1.00;;;;;;5041626;28;20549;-81
2022/08/11 16:21:38;;;;;;;3.00;1.77;;;45.40;1.00;;;;;;5035866;28;20439;-81
2022/08/11 16:24:08;;;;;;;2.70;1.60;;;45.20;1.00;;;;;;5033471;28;20427;-81
2022/08/11 16:26:41;;;;;;;2.57;1.53;;;44.70;1.00;;;;;;5028953;28;20435;-79
2022/08/11 16:29:16;;;;;;;2.07;1.40;;;44.80;1.00;;;;;;5031803;28;20871;-79
2022/08/11 16:32:15;;;;;;;1.40;1.40;;;45.20;1.00;;;;;;5037829;28;20488;-80
2022/08/11 16:40:25;;;;;;;5.00;1.80;;;44.80;1.00;;;;;;5028404;28;20442;-75
2022/08/11 16:49:07;;;;;;;1.40;1.30;;;45.00;1.00;;;;;;5032332;28;20461;-81
2022/08/11 16:51:39;;;;;;;4.00;1.70;;;44.30;1.00;;;;;;5024153;28;20454;-80
2022/08/11 16:54:06;;;;;;;7.10;1.80;;;43.80;1.00;;;;;;5026380;28;20440;-79
2022/08/11 16:56:52;;;;;;;3.67;1.63;;;43.60;1.00;;;;;;5033854;28;20450;-79
2022/08/11 16:59:35;;;;;;;3.53;1.80;;;43.60;1.00;;;;;;5033544;28;20546;-80
2022/08/11 17:02:10;;;;;;;1.50;1.40;;;43.80;1.00;;;;;;5026992;28;20505;-80
2022/08/11 17:14:04;;;;;;;4.07;1.83;;;45.10;1.00;;;;;;5021427;28;20430;-81
2022/08/11 17:16:34;;;;;;;1.77;1.67;;;44.50;1.00;;;;;;5024964;28;20439;-80
2022/08/11 17:19:08;;;;;;;6.13;1.80;;;43.80;1.00;;;;;;5027117;28;20466;-78
2022/08/11 17:24:35;;;;;;;2.97;1.80;;;41.70;1.00;;;;;;5028493;28;20414;-79
2022/08/11 17:27:04;;;;;;;3.33;1.77;;;40.90;1.00;;;;;;5027002;28;20590;-77
2022/08/11 17:29:55;;;;;;;4.33;1.80;;;40.30;1.00;;;;;;5035165;28;20458;-75
2022/08/11 17:35:33;;;;;;;6.93;2.10;;;38.90;1.00;;;;;;5027246;28;20455;-74
2022/08/11 17:38:15;;;;;;;2.13;1.93;;;38.80;1.00;;;;;;5025595;28;20435;-74
2022/08/11 17:49:15;;;;;;;5.13;2.30;;;36.00;1.00;;;;;;5017426;28;20482;-75
2022/08/11 18:00:07;;;;;;;3.10;2.77;;;33.70;1.00;;;;;;5015552;28;20555;-76
2022/08/11 18:05:30;;;;;;;2.57;2.37;;;32.80;1.00;;;;;;5025766;28;20829;-77
